Time;durP1;ratioP1;P1;durP2;ratioP2;P2;SDS_P1;SDS_P2;PMS_P1;PMS_P2;Temp;Humidity;BMP_temperature;BMP_pressure;BME280_temperature;BME280_humidity;BME280_pressure;Samples;Min_cycle;Max_cycle;Signal;HPM_P1;HPM_P2
2023/01/30 00:00:21;;;;;;;40.60;19.90;;;;;;;3.29;100.00;101779.47;5010442;28;20109;-85
2023/01/30 00:02:47;;;;;;;43.37;22.60;;;;;;;3.34;100.00;101769.13;5010841;28;20038;-85
2023/01/30 00:05:12;;;;;;;41.70;20.10;;;;;;;3.36;100.00;101755.72;5004754;28;20069;-85
2023/01/30 00:07:38;;;;;;;41.77;20.53;;;;;;;3.34;100.00;101721.44;5001401;28;20026;-85
2023/01/30 00:10:04;;;;;;;42.80;20.10;;;;;;;3.41;100.00;101730.31;5010903;28;20025;-85
2023/01/30 00:12:29;;;;;;;46.65;21.95;;;;;;;3.42;100.00;101731.09;5011673;28;20041;-85
2023/01/30 00:14:54;;;;;;;43.47;20.90;;;;;;;3.45;100.00;101744.81;5011844;28;20030;-85
2023/01/30 00:17:21;;;;;;;42.17;20.60;;;;;;;3.50;100.00;101749.56;5011196;28;20046;-85
2023/01/30 00:19:46;;;;;;;47.47;21.08;;;;;;;3.50;100.00;101733.66;5007890;28;20043;-85
2023/01/30 00:22:11;;;;;;;40.00;19.37;;;;;;;3.49;100.00;101722.22;4991498;28;20339;-85
2023/01/30 00:24:37;;;;;;;41.00;21.17;;;;;;;3.55;100.00;101735.72;4992605;28;20089;-85
2023/01/30 00:27:02;;;;;;;40.50;18.87;;;;;;;3.59;100.00;101739.66;5019949;28;20041;-84
2023/01/30 00:29:27;;;;;;;37.43;19.53;;;;;;;3.55;100.00;101725.97;5029530;28;20022;-85
2023/01/30 00:31:53;;;;;;;41.77;21.07;;;;;;;3.63;100.00;101727.66;5028748;28;20026;-85
2023/01/30 00:34:18;;;;;;;42.50;19.05;;;;;;;3.66;100.00;101732.56;5022010;28;20026;-85
2023/01/30 00:36:43;;;;;;;39.83;19.83;;;;;;;3.66;100.00;101731.75;5011264;28;20036;-85
2023/01/30 00:39:08;;;;;;;43.17;19.73;;;;;;;3.65;100.00;101715.06;5009566;28;20033;-85
2023/01/30 00:47:05;;;;;;;42.27;18.10;;;;;;;3.74;100.00;101716.56;5011268;28;20040;-85
2023/01/30 00:49:31;;;;;;;36.63;19.03;;;;;;;3.75;100.00;101715.53;5010359;28;21027;-86
2023/01/30 00:51:57;;;;;;;41.45;19.55;;;;;;;3.74;100.00;101708.59;4998815;28;20058;-85
2023/01/30 00:54:23;;;;;;;40.83;20.38;;;;;;;3.75;100.00;101722.66;4991907;28;20022;-85
2023/01/30 00:56:48;;;;;;;40.10;19.70;;;;;;;3.73;100.00;101717.56;4990877;28;20027;-85
2023/01/30 00:59:13;;;;;;;45.13;20.33;;;;;;;3.83;100.00;101721.72;4993879;28;20461;-85
2023/01/30 01:01:39;;;;;;;43.25;21.75;;;;;;;3.81;100.00;101707.84;5010217;28;20037;-85
2023/01/30 01:04:05;;;;;;;40.57;19.60;;;;;;;3.88;100.00;101708.72;5017165;28;20036;-84
2023/01/30 01:06:31;;;;;;;40.95;21.02;;;;;;;3.90;100.00;101704.03;5027398;28;20049;-86
2023/01/30 01:08:56;;;;;;;40.87;20.47;;;;;;;3.91;100.00;101705.66;5015495;28;20050;-86
2023/01/30 01:11:23;;;;;;;42.17;21.40;;;;;;;3.93;100.00;101709.75;5016663;28;20133;-85
2023/01/30 01:13:53;;;;;;;45.67;22.42;;;;;;;3.95;100.00;101712.25;5031085;28;20022;-85
2023/01/30 01:16:19;;;;;;;40.03;20.88;;;;;;;3.89;100.00;101692.63;5013749;28;20083;-85
2023/01/30 01:18:46;;;;;;;39.80;20.43;;;;;;;3.96;100.00;101689.19;5013931;28;20113;-85
2023/01/30 01:21:15;;;;;;;43.90;21.10;;;;;;;3.97;100.00;101690.81;5013262;28;20105;-85
2023/01/30 01:23:40;;;;;;;45.03;22.58;;;;;;;4.00;100.00;101696.59;5012262;28;20058;-85
2023/01/30 01:26:06;;;;;;;40.30;20.73;;;;;;;3.99;100.00;101686.16;5013302;28;20135;-85
2023/01/30 01:28:31;;;;;;;39.90;20.08;;;;;;;4.04;100.00;101689.84;5011026;28;20030;-85
2023/01/30 01:30:57;;;;;;;45.97;20.47;;;;;;;3.98;100.00;101673.91;5012155;28;20030;-85
2023/01/30 01:33:26;;;;;;;41.63;23.77;;;;;;;4.00;100.00;101674.53;5012806;28;20109;-85
2023/01/30 01:35:57;;;;;;;44.70;22.42;;;;;;;4.08;100.00;101682.34;5012529;28;20026;-85
2023/01/30 01:38:22;;;;;;;41.35;21.45;;;;;;;4.11;100.00;101679.28;5004480;28;20165;-85
2023/01/30 01:41:05;;;;;;;47.20;22.30;;;;;;;4.05;100.00;101669.47;4993647;28;20109;-86
2023/01/30 01:44:06;;;;;;;47.53;20.35;;;;;;;4.16;100.00;101671.59;4993695;28;20022;-85
2023/01/30 01:46:39;;;;;;;37.45;19.75;;;;;;;4.18;100.00;101666.09;4992315;28;20038;-85
2023/01/30 01:49:28;;;;;;;39.95;20.40;;;;;;;4.19;100.00;101662.44;4993154;28;20067;-85
2023/01/30 01:52:02;;;;;;;43.40;21.67;;;;;;;4.21;100.00;101644.47;4992784;28;20069;-85
2023/01/30 01:54:41;;;;;;;37.53;20.47;;;;;;;4.24;100.00;101617.53;5009915;28;20037;-85
2023/01/30 01:57:14;;;;;;;42.90;20.63;;;;;;;4.23;100.00;101626.50;5010848;28;20026;-85
2023/01/30 01:59:50;;;;;;;39.90;20.30;;;;;;;4.26;100.00;101627.97;5012590;28;20038;-85
2023/01/30 02:02:18;;;;;;;41.55;20.63;;;;;;;4.24;100.00;101622.84;5012896;28;20050;-86
2023/01/30 02:05:00;;;;;;;37.22;20.13;;;;;;;4.29;100.00;101628.41;5012900;28;20104;-85
2023/01/30 02:07:47;;;;;;;39.47;18.80;;;;;;;4.32;100.00;101622.72;4992938;28;20057;-85
2023/01/30 02:10:19;;;;;;;42.17;19.93;;;;;;;4.28;100.00;101625.94;4992047;28;20068;-85
2023/01/30 02:12:46;;;;;;;43.13;19.60;;;;;;;4.32;100.00;101616.56;5013097;28;20553;-85
2023/01/30 02:20:30;;;;;;;40.33;20.52;;;;;;;4.37;100.00;101612.31;5161221;22;20058;-84
2023/01/30 02:23:17;;;;;;;44.23;21.50;;;;;;;4.39;100.00;101615.56;5041363;28;20026;-85
2023/01/30 02:26:31;;;;;;;40.50;19.87;;;;;;;4.40;100.00;101609.25;5033717;28;20292;-84
2023/01/30 02:32:07;;;;;;;41.63;20.70;;;;;;;4.42;100.00;101592.31;5426084;22;20044;-84
2023/01/30 02:34:58;;;;;;;43.35;21.13;;;;;;;4.42;100.00;101592.31;5071422;28;20050;-84
2023/01/30 02:37:48;;;;;;;38.65;19.75;;;;;;;4.42;100.00;101573.75;5044741;28;20128;-85
2023/01/30 02:40:32;;;;;;;48.10;20.30;;;;;;;4.36;100.00;101562.09;5032569;28;20046;-85
2023/01/30 02:43:24;;;;;;;41.50;19.57;;;;;;;4.42;100.00;101587.84;5050487;28;20010;-85
2023/01/30 02:45:58;;;;;;;37.45;18.77;;;;;;;4.44;100.00;101585.81;5050395;28;20066;-85
2023/01/30 02:48:33;;;;;;;43.13;20.10;;;;;;;4.44;100.00;101592.94;5052480;28;20052;-85
2023/01/30 02:51:06;;;;;;;39.35;20.45;;;;;;;4.43;100.00;101593.97;5052742;28;20100;-86
2023/01/30 02:53:33;;;;;;;37.15;19.23;;;;;;;4.39;100.00;101581.06;5064013;28;20029;-85
2023/01/30 02:55:58;;;;;;;39.75;20.83;;;;;;;4.37;100.00;101580.47;5085430;28;20013;-85
2023/01/30 02:58:30;;;;;;;47.80;21.30;;;;;;;4.35;100.00;101590.47;5078662;28;20495;-85
2023/01/30 03:01:15;;;;;;;44.15;21.42;;;;;;;4.26;100.00;101578.38;5048890;28;20028;-86
2023/01/30 03:04:01;;;;;;;45.78;22.38;;;;;;;4.31;100.00;101577.78;5052936;28;20024;-85
2023/01/30 03:06:41;;;;;;;47.45;21.63;;;;;;;4.32;100.00;101576.75;5072555;28;20047;-86
2023/01/30 03:09:09;;;;;;;48.00;21.03;;;;;;;4.30;100.00;101570.81;5054665;28;20024;-85
2023/01/30 03:11:53;;;;;;;42.47;20.40;;;;;;;4.32;100.00;101574.94;5037206;28;20362;-85
2023/01/30 03:14:54;;;;;;;45.30;21.98;;;;;;;4.28;100.00;101562.28;5048653;28;20030;-85
2023/01/30 03:17:23;;;;;;;49.20;22.35;;;;;;;4.20;100.00;101539.38;5048841;28;20044;-85
2023/01/30 03:22:24;;;;;;;53.35;24.45;;;;;;;4.26;100.00;101554.50;6061820;22;20499;-85
2023/01/30 03:24:51;;;;;;;49.77;23.73;;;;;;;4.20;100.00;101542.03;5064897;28;20128;-85
2023/01/30 03:27:18;;;;;;;55.53;24.63;;;;;;;4.23;100.00;101557.53;5050913;28;20033;-85
2023/01/30 03:29:43;;;;;;;57.27;23.70;;;;;;;4.15;100.00;101531.19;5049772;28;20098;-85
2023/01/30 03:32:09;;;;;;;53.27;23.10;;;;;;;4.21;100.00;101541.81;5050214;28;20791;-85
2023/01/30 03:34:34;;;;;;;57.23;24.53;;;;;;;4.20;100.00;101560.59;5050370;28;20115;-84
2023/01/30 03:36:59;;;;;;;51.17;23.30;;;;;;;4.21;100.00;101551.59;5049514;28;20064;-85
2023/01/30 03:39:25;;;;;;;51.90;24.93;;;;;;;4.22;100.00;101540.81;5049229;28;20055;-85
2023/01/30 03:41:51;;;;;;;58.40;23.85;;;;;;;4.23;100.00;101531.00;5053864;28;20103;-85
2023/01/30 03:44:17;;;;;;;56.00;24.17;;;;;;;4.18;100.00;101526.31;5049825;28;20036;-85
2023/01/30 03:46:42;;;;;;;52.67;23.70;;;;;;;4.15;100.00;101521.38;5051102;28;20021;-86
2023/01/30 03:49:07;;;;;;;57.07;28.23;;;;;;;4.19;100.00;101530.59;5045892;28;20649;-85
2023/01/30 03:51:33;;;;;;;57.17;25.13;;;;;;;4.23;100.00;101531.00;5031265;28;20022;-85
2023/01/30 03:53:58;;;;;;;54.30;24.88;;;;;;;4.20;100.00;101520.81;5037471;28;20454;-85
2023/01/30 03:56:24;;;;;;;51.37;23.37;;;;;;;4.24;100.00;101528.16;5041334;28;20064;-85
2023/01/30 03:58:49;;;;;;;49.67;24.37;;;;;;;4.20;100.00;101526.13;5051919;28;20033;-86
2023/01/30 04:01:14;;;;;;;55.43;23.90;;;;;;;4.25;100.00;101542.25;5053814;28;20052;-85
2023/01/30 04:03:40;;;;;;;58.87;25.70;;;;;;;4.30;100.00;101539.81;5051971;28;20086;-86
2023/01/30 04:06:06;;;;;;;59.63;26.73;;;;;;;4.31;100.00;101541.47;5055932;28;20359;-86
2023/01/30 04:08:31;;;;;;;63.13;26.63;;;;;;;4.28;100.00;101536.53;5063398;28;20025;-86
2023/01/30 04:10:56;;;;;;;55.90;24.73;;;;;;;4.33;100.00;101542.09;5050978;28;20029;-86
2023/01/30 04:13:22;;;;;;;58.27;25.83;;;;;;;4.26;100.00;101532.47;5068177;28;20048;-86
2023/01/30 04:15:48;;;;;;;51.20;23.03;;;;;;;4.34;100.00;101537.59;5053721;28;20499;-86
2023/01/30 04:18:15;;;;;;;52.85;23.38;;;;;;;4.35;100.00;101537.41;5017469;28;20381;-86
2023/01/30 04:20:42;;;;;;;52.65;24.88;;;;;;;4.38;100.00;101531.66;5039357;28;20098;-86
2023/01/30 04:23:07;;;;;;;55.55;25.13;;;;;;;4.40;100.00;101534.94;5031199;28;20064;-88
2023/01/30 04:25:33;;;;;;;54.90;24.03;;;;;;;4.43;100.00;101535.56;5013030;28;20060;-86
2023/01/30 04:27:59;;;;;;;59.60;24.75;;;;;;;4.42;100.00;101510.88;5044256;28;20029;-86
2023/01/30 04:30:26;;;;;;;48.97;23.20;;;;;;;4.47;100.00;101526.19;5048025;28;20110;-86
2023/01/30 04:32:52;;;;;;;56.27;23.83;;;;;;;4.49;100.00;101522.31;5050272;28;20303;-86
2023/01/30 04:35:17;;;;;;;52.38;23.63;;;;;;;4.53;100.00;101512.94;5050726;28;20028;-86
2023/01/30 04:37:46;;;;;;;51.93;23.20;;;;;;;4.54;100.00;101514.59;5049463;28;20048;-85
2023/01/30 04:40:14;;;;;;;51.70;22.02;;;;;;;4.58;100.00;101520.28;5048840;28;20032;-87
2023/01/30 04:42:39;;;;;;;46.27;20.47;;;;;;;4.55;100.00;101508.25;5032844;28;20028;-87
2023/01/30 04:45:05;;;;;;;55.17;24.07;;;;;;;4.60;100.00;101517.47;5049598;28;20299;-87
2023/01/30 04:47:31;;;;;;;46.23;19.70;;;;;;;4.64;100.00;101524.81;5051297;28;20037;-87
2023/01/30 04:49:56;;;;;;;46.58;21.33;;;;;;;4.63;100.00;101511.75;5053751;28;20063;-86
2023/01/30 04:52:21;;;;;;;39.73;19.00;;;;;;;4.68;100.00;101531.38;5052761;28;20492;-86
2023/01/30 04:54:46;;;;;;;48.43;19.17;;;;;;;4.66;100.00;101519.28;5054346;28;20043;-86
2023/01/30 04:57:12;;;;;;;44.57;19.13;;;;;;;4.65;100.00;101523.81;5052754;28;20033;-86
2023/01/30 05:04:03;;;;;;;;;;;;;;;;;;;;;
2023/01/30 05:06:30;;;;;;;41.30;15.77;;;;;;;4.77;100.00;101531.16;5054500;22;20059;-89
2023/01/30 05:08:56;;;;;;;43.88;17.00;;;;;;;4.82;100.00;101528.72;5051854;28;20021;-89
2023/01/30 05:11:24;;;;;;;33.53;14.93;;;;;;;4.85;100.00;101544.25;5048205;28;20460;-89
2023/01/30 05:13:49;;;;;;;36.95;15.15;;;;;;;4.88;100.00;101543.03;5033142;28;20096;-89
2023/01/30 05:16:16;;;;;;;36.65;14.55;;;;;;;4.90;100.00;101541.81;5032797;28;20443;-89
2023/01/30 05:18:42;;;;;;;38.25;13.70;;;;;;;4.91;100.00;101542.63;5036612;28;20465;-89
2023/01/30 05:21:13;;;;;;;40.40;16.77;;;;;;;4.96;100.00;101542.84;5052883;28;20029;-89
2023/01/30 05:23:39;;;;;;;30.73;13.32;;;;;;;4.97;100.00;101536.53;5053093;28;20036;-89
2023/01/30 05:26:04;;;;;;;35.88;14.80;;;;;;;4.95;100.00;101528.75;5052611;28;20059;-89
2023/01/30 05:28:30;;;;;;;28.03;11.77;;;;;;;5.00;100.00;101538.78;5049058;28;20033;-89
2023/01/30 05:31:10;;;;;;;32.27;13.07;;;;;;;5.03;100.00;101540.19;5032425;28;20095;-89
2023/01/30 05:33:36;;;;;;;31.10;11.30;;;;;;;5.02;100.00;101533.25;5032877;28;20283;-89
2023/01/30 05:36:02;;;;;;;29.40;10.05;;;;;;;4.97;100.00;101515.28;5035398;28;20579;-89
2023/01/30 05:38:27;;;;;;;29.65;10.10;;;;;;;4.96;100.00;101519.75;5032370;28;20037;-89
2023/01/30 05:41:02;;;;;;;28.17;9.27;;;;;;;5.00;100.00;101528.97;5032022;28;20018;-88
2023/01/30 05:43:28;;;;;;;22.60;8.05;;;;;;;5.05;100.00;101532.84;5054656;28;20028;-85
2023/01/30 05:45:55;;;;;;;26.33;8.40;;;;;;;5.04;100.00;101520.59;5049309;28;20028;-88
2023/01/30 05:48:21;;;;;;;32.80;8.13;;;;;;;5.02;100.00;101522.63;5040148;28;20434;-87
2023/01/30 05:50:49;;;;;;;21.90;7.45;;;;;;;5.04;100.00;101526.69;5051826;28;20070;-87
2023/01/30 05:53:14;;;;;;;25.10;7.43;;;;;;;5.07;100.00;101531.63;5048079;28;20037;-88
2023/01/30 05:55:40;;;;;;;28.13;7.10;;;;;;;5.06;100.00;101532.63;5051783;28;20032;-87
2023/01/30 05:58:06;;;;;;;22.43;7.37;;;;;;;5.05;100.00;101527.53;5047666;28;20594;-87
2023/01/30 06:00:31;;;;;;;23.85;6.95;;;;;;;5.08;100.00;101535.09;5052245;28;20032;-87
2023/01/30 06:02:57;;;;;;;17.27;5.93;;;;;;;5.11;100.00;101545.34;5050574;28;20033;-88
2023/01/30 06:05:22;;;;;;;20.40;6.80;;;;;;;5.08;100.00;101551.03;5040877;28;20022;-88
2023/01/30 06:07:47;;;;;;;25.52;6.25;;;;;;;5.09;100.00;101555.34;5040426;28;20029;-87
2023/01/30 06:10:12;;;;;;;15.80;6.43;;;;;;;5.11;100.00;101542.69;5049922;28;20032;-88
2023/01/30 06:12:38;;;;;;;19.67;5.33;;;;;;;5.11;100.00;101548.00;5049932;28;20598;-86
2023/01/30 06:15:03;;;;;;;20.10;6.33;;;;;;;5.10;100.00;101546.34;5050294;28;20025;-87
2023/01/30 06:17:30;;;;;;;25.23;5.87;;;;;;;5.09;100.00;101553.50;5045444;28;20377;-89
2023/01/30 06:19:55;;;;;;;22.77;5.95;;;;;;;5.05;100.00;101554.09;5051568;28;20047;-89
2023/01/30 06:22:20;;;;;;;17.60;5.00;;;;;;;5.07;100.00;101565.34;5050040;28;20452;-88
2023/01/30 06:24:46;;;;;;;28.60;5.80;;;;;;;5.15;100.00;101567.78;5050543;28;20369;-86
2023/01/30 06:27:13;;;;;;;23.40;4.22;;;;;;;5.15;100.00;101576.59;5046358;28;20622;-87
2023/01/30 06:29:38;;;;;;;25.95;4.90;;;;;;;5.12;100.00;101566.38;5044865;28;20033;-87
2023/01/30 06:32:04;;;;;;;17.27;4.30;;;;;;;5.12;100.00;101589.44;5051379;28;20112;-87
2023/01/30 06:34:29;;;;;;;16.85;4.15;;;;;;;5.08;100.00;101594.34;5051444;28;20147;-87
2023/01/30 06:36:55;;;;;;;16.07;3.63;;;;;;;4.98;100.00;101592.09;5051292;28;20091;-87
2023/01/30 06:39:20;;;;;;;19.80;3.93;;;;;;;4.90;100.00;101586.97;5051090;28;20532;-88
2023/01/30 06:41:45;;;;;;;17.73;3.30;;;;;;;4.78;100.00;101599.19;5048393;28;20109;-87
2023/01/30 06:44:11;;;;;;;15.45;2.90;;;;;;;4.66;100.00;101590.97;5030858;28;20028;-87
2023/01/30 06:46:36;;;;;;;16.57;3.20;;;;;;;4.53;100.00;101578.50;5047012;28;20604;-87
2023/01/30 06:49:01;;;;;;;17.23;3.63;;;;;;;4.43;100.00;101589.47;5049153;28;20021;-87
2023/01/30 06:51:27;;;;;;;13.80;2.87;;;;;;;4.29;100.00;101593.91;5050785;28;20036;-87
2023/01/30 06:53:52;;;;;;;15.70;2.80;;;;;;;4.26;100.00;101596.13;5049715;28;20108;-87
2023/01/30 06:56:18;;;;;;;15.02;2.47;;;;;;;4.18;100.00;101595.28;5051432;28;20029;-87
2023/01/30 06:58:44;;;;;;;21.70;3.50;;;;;;;4.12;100.00;101580.13;5048364;28;20036;-88
2023/01/30 07:01:09;;;;;;;22.38;2.50;;;;;;;4.02;100.00;101569.88;5044826;28;20021;-86
2023/01/30 07:03:35;;;;;;;11.83;2.33;;;;;;;3.99;100.00;101559.69;5047866;28;20036;-88
2023/01/30 07:06:00;;;;;;;18.98;2.38;;;;;;;3.90;100.00;101569.63;5049779;28;20036;-88
2023/01/30 07:08:25;;;;;;;22.07;2.87;;;;;;;3.86;100.00;101578.16;5055112;28;20029;-88
2023/01/30 07:10:51;;;;;;;13.97;2.40;;;;;;;3.78;100.00;101572.00;5050158;28;20029;-87
2023/01/30 07:13:16;;;;;;;16.53;2.47;;;;;;;3.71;100.00;101584.38;5049870;28;20476;-88
2023/01/30 07:15:41;;;;;;;19.10;2.30;;;;;;;3.63;100.00;101582.69;5049784;28;20044;-88
2023/01/30 07:18:07;;;;;;;15.07;2.73;;;;;;;3.61;100.00;101600.63;5031728;28;20029;-89
2023/01/30 07:20:32;;;;;;;14.43;2.20;;;;;;;3.59;100.00;101605.28;5049419;28;20108;-90
2023/01/30 07:22:58;;;;;;;15.10;2.27;;;;;;;3.57;100.00;101603.84;5049728;28;20033;-90
2023/01/30 07:25:25;;;;;;;15.20;2.50;;;;;;;3.56;100.00;101603.00;5046944;28;20079;-92
2023/01/30 07:27:58;;;;;;;13.70;2.05;;;;;;;3.53;100.00;101605.25;5050197;28;20044;-90
2023/01/30 07:30:25;;;;;;;17.88;2.03;;;;;;;3.45;100.00;101614.97;5045493;28;20586;-90
2023/01/30 07:32:54;;;;;;;22.92;2.75;;;;;;;3.45;100.00;101607.03;5049714;28;20518;-90
2023/01/30 07:35:21;;;;;;;15.52;1.90;;;;;;;3.43;100.00;101611.69;5044198;28;20807;-91
2023/01/30 07:37:48;;;;;;;18.80;2.33;;;;;;;3.45;100.00;101624.75;5031413;28;20397;-91
2023/01/30 07:40:14;;;;;;;21.93;2.97;;;;;;;3.43;100.00;101619.66;5043793;28;20394;-89
2023/01/30 07:42:40;;;;;;;19.23;2.17;;;;;;;3.45;100.00;101622.94;5041160;28;20029;-89
2023/01/30 07:45:06;;;;;;;15.57;1.73;;;;;;;3.43;100.00;101619.66;5049589;28;20024;-89
2023/01/30 07:47:32;;;;;;;22.00;2.22;;;;;;;3.42;100.00;101631.25;5044034;28;20052;-90
2023/01/30 07:49:57;;;;;;;16.57;2.30;;;;;;;3.35;100.00;101622.41;5045877;28;20040;-89
2023/01/30 07:52:23;;;;;;;15.30;2.00;;;;;;;3.33;100.00;101625.25;5050514;28;20431;-89
2023/01/30 07:54:48;;;;;;;18.63;2.40;;;;;;;3.32;100.00;101628.09;5046643;28;20034;-89
2023/01/30 07:57:13;;;;;;;21.33;2.25;;;;;;;3.31;100.00;101621.97;5040018;28;20041;-91
2023/01/30 07:59:39;;;;;;;21.53;2.30;;;;;;;3.29;100.00;101626.66;5037672;28;20025;-90
2023/01/30 08:02:05;;;;;;;24.23;2.40;;;;;;;3.31;100.00;101631.75;5024933;28;20511;-89
2023/01/30 08:04:30;;;;;;;25.60;3.30;;;;;;;3.34;100.00;101626.06;5045360;28;20056;-88
2023/01/30 08:06:56;;;;;;;17.63;1.90;;;;;;;3.35;100.00;101627.72;5047065;28;20060;-88
2023/01/30 08:09:21;;;;;;;22.37;2.53;;;;;;;3.38;100.00;101637.13;5046756;28;20056;-89
2023/01/30 08:11:46;;;;;;;22.10;2.50;;;;;;;3.43;100.00;101626.75;5050271;28;20092;-89
2023/01/30 08:14:12;;;;;;;23.10;2.22;;;;;;;3.44;100.00;101642.47;5031163;28;20103;-87
2023/01/30 08:16:37;;;;;;;21.97;1.90;;;;;;;3.42;100.00;101625.94;5047073;28;20033;-88
2023/01/30 08:19:04;;;;;;;25.67;3.13;;;;;;;3.48;100.00;101642.91;5049232;28;20083;-88
2023/01/30 08:21:29;;;;;;;39.42;2.42;;;;;;;3.48;100.00;101637.63;5054300;28;20063;-88
2023/01/30 08:23:55;;;;;;;13.83;1.90;;;;;;;3.47;100.00;101649.22;5052932;28;20052;-88
2023/01/30 08:26:20;;;;;;;13.43;1.70;;;;;;;3.48;100.00;101659.63;5053696;28;20052;-88
2023/01/30 08:28:45;;;;;;;17.25;2.03;;;;;;;3.51;100.00;101663.75;5053447;28;20029;-88
2023/01/30 08:31:12;;;;;;;31.57;2.23;;;;;;;3.55;100.00;101669.47;5053552;28;20056;-88
2023/01/30 08:33:37;;;;;;;24.15;2.72;;;;;;;3.63;100.00;101666.72;5049766;28;20029;-88
2023/01/30 08:36:03;;;;;;;21.23;2.17;;;;;;;3.61;100.00;101663.41;5053603;28;20044;-88
2023/01/30 08:38:28;;;;;;;22.23;2.20;;;;;;;3.64;100.00;101657.75;5053481;28;20064;-88
2023/01/30 08:40:55;;;;;;;21.27;1.80;;;;;;;3.69;100.00;101663.28;5053878;28;20067;-88
2023/01/30 08:43:21;;;;;;;15.95;1.90;;;;;;;3.71;100.00;101661.25;5037807;28;20040;-88
2023/01/30 08:45:46;;;;;;;15.17;1.73;;;;;;;3.74;100.00;101660.88;5033924;28;20029;-88
2023/01/30 08:48:12;;;;;;;20.20;2.57;;;;;;;3.81;100.00;101665.41;5045311;28;20036;-88
2023/01/30 08:50:37;;;;;;;24.40;2.53;;;;;;;3.82;100.00;101675.81;5053543;28;20528;-89
2023/01/30 08:53:04;;;;;;;20.42;2.05;;;;;;;3.88;100.00;101679.53;5053730;28;20024;-89
2023/01/30 08:55:30;;;;;;;22.87;2.40;;;;;;;3.90;100.00;101669.56;5052720;28;20017;-88
2023/01/30 08:57:56;;;;;;;25.47;2.80;;;;;;;3.99;100.00;101664.94;5052806;28;20643;-88
2023/01/30 09:00:21;;;;;;;23.10;2.73;;;;;;;4.04;100.00;101684.56;5041746;28;20054;-89
2023/01/30 09:02:46;;;;;;;14.82;2.33;;;;;;;4.11;100.00;101689.91;5033606;28;20366;-88
2023/01/30 09:05:12;;;;;;;21.30;1.90;;;;;;;4.12;100.00;101691.53;5043445;28;20124;-89
2023/01/30 09:07:37;;;;;;;21.83;2.10;;;;;;;4.15;100.00;101701.78;5052933;28;20111;-88
2023/01/30 09:10:03;;;;;;;24.70;1.93;;;;;;;4.19;100.00;101697.72;5053374;28;20625;-89
2023/01/30 09:12:28;;;;;;;14.93;1.83;;;;;;;4.27;100.00;101703.91;5053133;28;20032;-88
2023/01/30 09:14:56;;;;;;;16.07;2.00;;;;;;;4.27;100.00;101706.56;5053171;28;20100;-88
2023/01/30 09:17:22;;;;;;;18.17;2.72;;;;;;;4.27;100.00;101709.22;5047050;28;20030;-87
2023/01/30 09:19:48;;;;;;;20.53;2.50;;;;;;;4.34;100.00;101718.84;5032653;28;20025;-87
2023/01/30 09:22:13;;;;;;;14.13;1.70;;;;;;;4.38;100.00;101713.97;5048831;28;20041;-87
2023/01/30 09:24:38;;;;;;;21.70;2.67;;;;;;;4.43;100.00;101721.34;5053179;28;20514;-87
2023/01/30 09:27:03;;;;;;;13.23;2.13;;;;;;;4.45;100.00;101721.97;5052730;28;20052;-88
2023/01/30 09:29:29;;;;;;;20.70;2.03;;;;;;;4.46;100.00;101719.16;5052933;28;20025;-87
2023/01/30 09:31:55;;;;;;;20.77;2.00;;;;;;;4.53;100.00;101724.50;5051612;28;20041;-88
2023/01/30 09:34:27;;;;;;;18.90;1.90;;;;;;;4.63;100.00;101730.25;5049834;28;20017;-87
2023/01/30 09:36:58;;;;;;;17.38;1.98;;;;;;;4.69;100.00;101716.22;5051833;28;20543;-88
2023/01/30 09:39:24;;;;;;;14.85;1.60;;;;;;;4.73;100.00;101724.59;5052363;28;20037;-88
2023/01/30 09:42:19;;;;;;;25.87;2.63;;;;;;;4.79;100.00;101734.44;5052763;28;20025;-87
2023/01/30 09:45:09;;;;;;;15.57;1.90;;;;;;;4.88;100.00;101742.22;5052726;28;20396;-87
2023/01/30 09:47:54;;;;;;;22.85;2.08;;;;;;;5.08;100.00;101727.19;5052201;28;20120;-87
2023/01/30 09:51:00;;;;;;;20.50;2.53;;;;;;;5.43;100.00;101735.06;5050442;28;20032;-87
2023/01/30 09:53:53;;;;;;;15.77;1.67;;;;;;;5.50;100.00;101732.41;5052796;28;20102;-88
2023/01/30 09:56:19;;;;;;;14.77;1.57;;;;;;;5.54;100.00;101738.97;5052822;28;20492;-87
2023/01/30 09:58:54;;;;;;;14.13;1.83;;;;;;;5.60;100.00;101734.69;5051863;28;20374;-88
2023/01/30 10:01:42;;;;;;;16.55;1.70;;;;;;;5.74;100.00;101749.66;5052359;28;20020;-87
2023/01/30 10:04:27;;;;;;;19.33;2.03;;;;;;;5.94;100.00;101750.69;5052346;28;20032;-88
2023/01/30 10:07:24;;;;;;;17.58;2.10;;;;;;;6.14;100.00;101756.88;5050161;28;20036;-88
2023/01/30 10:10:25;;;;;;;23.57;2.43;;;;;;;6.33;100.00;101765.84;5051189;28;20035;-87
2023/01/30 10:15:57;;;;;;;20.10;2.50;;;;;;;6.53;99.34;101765.03;5043215;28;20049;-91
2023/01/30 10:19:00;;;;;;;12.82;1.92;;;;;;;6.60;98.15;101767.66;5051976;28;20033;-92
2023/01/30 10:22:16;;;;;;;17.85;2.42;;;;;;;6.67;100.00;101782.59;5051766;28;20033;-92
2023/01/30 10:25:21;;;;;;;12.18;1.60;;;;;;;6.49;97.74;101755.81;5048336;28;20116;-94
2023/01/30 10:28:00;;;;;;;17.27;1.50;;;;;;;6.57;97.77;101765.44;5058047;22;20031;-93
2023/01/30 10:30:59;;;;;;;;;;;;;;;;;;;;;
2023/01/30 10:34:00;;;;;;;18.90;2.00;;;;;;;6.71;99.95;101782.19;5041154;28;20037;-92
2023/01/30 10:37:03;;;;;;;21.05;1.85;;;;;;;6.80;97.94;101794.28;5067471;28;20056;-91
2023/01/30 10:39:40;;;;;;;9.27;1.10;;;;;;;6.78;95.83;101773.16;5055051;28;20029;-90
2023/01/30 10:42:27;;;;;;;15.00;1.75;;;;;;;6.79;96.94;101797.97;5034037;28;20044;-93
2023/01/30 10:45:44;;;;;;;19.67;2.27;;;;;;;6.80;94.99;101797.75;5024776;28;20035;-92
2023/01/30 10:48:32;;;;;;;12.30;1.70;;;;;;;6.66;95.98;101780.97;4953512;28;20320;-92
2023/01/30 10:51:17;;;;;;;13.98;1.50;;;;;;;6.78;95.69;101815.78;5024509;28;20287;-94
2023/01/30 10:53:55;;;;;;;21.77;2.25;;;;;;;6.49;95.13;101775.28;5030339;28;20049;-95
2023/01/30 10:56:44;;;;;;;20.42;2.15;;;;;;;6.74;92.41;101797.78;5040793;28;20029;-95
2023/01/30 10:59:49;;;;;;;;;;;;;;;;;;;;;
2023/01/30 11:02:32;;;;;;;16.80;1.75;;;;;;;6.69;94.52;101794.91;5033590;28;20072;-93
2023/01/30 11:05:02;;;;;;;17.17;1.60;;;;;;;6.79;90.96;101805.97;5054176;28;20085;-94
2023/01/30 11:07:41;;;;;;;21.40;1.47;;;;;;;6.58;89.99;101783.88;5051648;22;20308;-94
2023/01/30 11:10:21;;;;;;;7.72;1.20;;;;;;;6.48;90.95;101768.31;5036913;28;20112;-95
2023/01/30 11:13:18;;;;;;;19.05;2.40;;;;;;;6.59;90.53;101774.03;5036473;28;20056;-93
2023/01/30 11:16:15;;;;;;;12.50;1.50;;;;;;;6.63;92.53;101780.56;5035485;28;20091;-95
2023/01/30 11:18:50;;;;;;;15.07;1.80;;;;;;;6.72;90.47;101795.31;5016952;28;20025;-93
2023/01/30 11:21:36;;;;;;;13.45;1.90;;;;;;;6.84;90.47;101784.03;5021532;28;20037;-94
2023/01/30 11:24:12;;;;;;;15.37;1.90;;;;;;;6.96;88.69;101791.16;5022119;28;20045;-93
2023/01/30 11:26:39;;;;;;;7.63;1.57;;;;;;;7.04;88.26;101808.75;5029499;28;20748;-94
2023/01/30 11:29:28;;;;;;;13.00;1.85;;;;;;;7.21;87.56;101813.63;5017485;28;20120;-94
2023/01/30 11:31:54;;;;;;;15.93;2.08;;;;;;;7.28;85.74;101807.25;5033845;28;20144;-94
2023/01/30 11:34:22;;;;;;;18.98;2.13;;;;;;;7.31;84.99;101808.66;5039868;28;20028;-91
2023/01/30 11:36:48;;;;;;;20.48;1.83;;;;;;;7.29;82.90;101810.75;5036891;28;20021;-92
2023/01/30 11:39:17;;;;;;;20.73;1.98;;;;;;;7.33;83.99;101816.47;5025742;28;20033;-94
2023/01/30 11:42:08;;;;;;;19.35;2.10;;;;;;;7.39;86.91;101811.09;5034837;28;20037;-94
2023/01/30 11:44:36;;;;;;;23.87;1.90;;;;;;;7.38;84.19;101817.44;5032223;28;20116;-94
2023/01/30 11:47:15;;;;;;;19.95;2.35;;;;;;;7.40;84.06;101823.41;5030705;28;20029;-93
2023/01/30 11:49:47;;;;;;;13.80;1.80;;;;;;;7.38;84.13;101816.66;5031359;28;20033;-94
2023/01/30 11:52:17;;;;;;;28.88;2.60;;;;;;;7.36;85.01;101821.38;5031091;28;20033;-93
2023/01/30 11:54:44;;;;;;;19.65;3.10;;;;;;;7.35;84.24;101823.19;5012102;28;20033;-93
2023/01/30 11:57:13;;;;;;;17.27;2.47;;;;;;;7.37;85.50;101815.00;5010940;28;20025;-93
2023/01/30 11:59:46;;;;;;;15.70;1.97;;;;;;;7.41;84.52;101825.03;5011206;28;20248;-93